Vernon, New York
Current Conditions -  °F | °C
As of 6:53 PM on Saturday 25 Oct 2014 (Local Time) from KRME Reporting Station
Overcast Overcast  
Wind Chill: 55°   Ceiling: 4400
Heat Index: 55°   Visibility: 9mi
Dew Point: 52°   Wind: 12mph
Humidity: 89%   Direction: 300°WNW
Pressure: 29.57"   Gusts: NA
Location:  43.08°N, 75.54°W
Report Text: KRME 252253Z 30010KT 9SM SCT034 BKN044 OVC060 13/11 A2957 RMK AO2 RAE33 SLP014 P0006 T01280111
Loading
Personal Weather Stations






























Interactive Weather Map
Tropical Storm Tracking
New forecast layout! Learn more

10-Day Weather Forecast

Advertisements
Track Severe Weather on mobile